createdAt,value
2023-04-10T00:00:20.784Z,3.79
2023-04-10T00:02:48.564Z,3.70
2023-04-10T00:05:16.532Z,3.82
2023-04-10T00:07:43.356Z,3.74
2023-04-10T00:10:10.566Z,3.74
2023-04-10T00:12:38.009Z,3.67
2023-04-10T00:15:05.386Z,3.75
2023-04-10T00:17:32.159Z,3.83
2023-04-10T00:19:59.483Z,3.77
2023-04-10T00:22:26.567Z,3.63
2023-04-10T00:24:53.865Z,3.63
2023-04-10T00:27:20.532Z,3.54
2023-04-10T00:29:47.259Z,3.53
2023-04-10T00:32:14.078Z,3.64
2023-04-10T00:34:41.093Z,3.65
2023-04-10T00:37:08.011Z,3.49
2023-04-10T00:39:34.791Z,3.46
2023-04-10T00:42:02.457Z,3.54
2023-04-10T00:44:29.290Z,3.58
2023-04-10T00:46:56.104Z,3.62
2023-04-10T00:49:22.841Z,3.60
2023-04-10T00:51:49.762Z,3.57
2023-04-10T00:54:16.780Z,3.60
2023-04-10T00:56:44.900Z,3.61
2023-04-10T00:59:11.719Z,3.59
2023-04-10T01:01:38.677Z,3.58
2023-04-10T01:04:05.969Z,3.56
2023-04-10T01:06:32.864Z,3.55
2023-04-10T01:09:02.777Z,3.42
2023-04-10T01:12:11.109Z,3.41
2023-04-10T01:15:06.208Z,3.40
2023-04-10T01:17:44.839Z,3.42
2023-04-10T01:20:23.557Z,3.39
2023-04-10T01:23:05.592Z,3.16
2023-04-10T01:25:43.534Z,3.19
2023-04-10T01:28:16.265Z,3.28
2023-04-10T01:30:44.831Z,3.20
2023-04-10T01:33:16.445Z,3.27
2023-04-10T01:35:47.765Z,3.13
2023-04-10T01:38:17.585Z,3.18
2023-04-10T01:40:50.119Z,3.29
2023-04-10T01:43:19.190Z,3.24
2023-04-10T01:45:48.190Z,3.36
2023-04-10T01:48:17.591Z,3.31
2023-04-10T01:50:46.709Z,3.33
2023-04-10T01:53:14.856Z,3.38
2023-04-10T01:55:42.492Z,3.20
2023-04-10T01:58:09.849Z,3.26
2023-04-10T02:00:43.873Z,3.26
2023-04-10T02:03:11.475Z,3.21
2023-04-10T02:06:11.070Z,3.17
2023-04-10T02:08:50.840Z,3.23
2023-04-10T02:11:25.260Z,3.28
2023-04-10T02:13:54.092Z,3.19
2023-04-10T02:16:22.898Z,3.18
2023-04-10T02:18:51.724Z,3.13
2023-04-10T02:21:18.744Z,3.12
2023-04-10T02:23:45.938Z,3.15
2023-04-10T02:26:12.681Z,3.14
2023-04-10T02:28:39.968Z,2.97
2023-04-10T02:31:07.712Z,3.08
2023-04-10T02:33:34.576Z,2.99
2023-04-10T02:36:01.936Z,3.11
2023-04-10T02:38:28.795Z,3.08
2023-04-10T02:40:55.539Z,3.02
2023-04-10T02:43:23.544Z,3.00
2023-04-10T02:45:50.320Z,3.02
2023-04-10T02:48:17.101Z,2.95
2023-04-10T02:50:46.460Z,2.84
2023-04-10T02:53:16.977Z,2.96
2023-04-10T02:55:43.765Z,2.95
2023-04-10T02:58:13.129Z,2.96
2023-04-10T03:00:41.151Z,2.97
2023-04-10T03:03:08.089Z,2.81
2023-04-10T03:05:34.847Z,2.85
2023-04-10T03:08:01.817Z,2.78
2023-04-10T03:10:29.183Z,2.83
2023-04-10T03:12:56.067Z,2.78
2023-04-10T03:15:22.743Z,2.73
2023-04-10T03:17:49.550Z,2.82
2023-04-10T03:20:16.472Z,2.82
2023-04-10T03:22:43.338Z,2.75
2023-04-10T03:25:10.459Z,2.79
2023-04-10T03:27:37.296Z,2.75
2023-04-10T03:30:04.480Z,2.67
2023-04-10T03:32:31.294Z,2.65
2023-04-10T03:34:58.771Z,2.66
2023-04-10T03:37:27.563Z,2.64
2023-04-10T03:39:54.317Z,2.71
2023-04-10T03:42:21.152Z,2.56
2023-04-10T03:44:47.888Z,2.53
2023-04-10T03:47:15.077Z,2.57
2023-04-10T03:49:41.918Z,2.54
2023-04-10T03:52:08.706Z,2.60
2023-04-10T03:54:35.511Z,2.61
2023-04-10T03:57:02.303Z,2.67
2023-04-10T03:59:38.228Z,2.58
2023-04-10T04:02:07.064Z,2.62
2023-04-10T04:04:34.175Z,2.45
2023-04-10T04:07:01.090Z,2.50
2023-04-10T04:09:27.786Z,2.56
2023-04-10T04:11:54.522Z,2.58
2023-04-10T04:14:21.275Z,2.49
2023-04-10T04:16:48.424Z,2.51
2023-04-10T04:19:15.665Z,2.58
2023-04-10T04:21:42.380Z,2.56
2023-04-10T04:24:09.127Z,2.45
2023-04-10T04:26:36.605Z,2.46
2023-04-10T04:29:03.362Z,2.42
2023-04-10T04:31:32.605Z,2.38
2023-04-10T04:34:00.575Z,2.39
2023-04-10T04:36:28.253Z,2.52
2023-04-10T04:38:55.325Z,2.50
2023-04-10T04:41:22.137Z,2.51
2023-04-10T04:43:49.416Z,2.56
2023-04-10T04:46:16.296Z,2.49
2023-04-10T04:48:43.141Z,2.52
2023-04-10T04:51:09.907Z,2.50
2023-04-10T04:53:37.022Z,2.45
2023-04-10T04:56:03.975Z,2.49
2023-04-10T04:58:30.774Z,2.44
2023-04-10T05:00:57.690Z,2.51
2023-04-10T05:03:24.702Z,2.52
2023-04-10T05:05:51.812Z,2.60
2023-04-10T05:08:18.605Z,2.69
2023-04-10T05:10:45.392Z,2.67
2023-04-10T05:13:12.685Z,2.58
2023-04-10T05:15:39.572Z,2.69
2023-04-10T05:18:06.409Z,2.73
2023-04-10T05:20:35.773Z,2.87
2023-04-10T05:23:03.197Z,2.99
2023-04-10T05:25:30.312Z,3.00
2023-04-10T05:27:57.020Z,3.17
2023-04-10T05:30:24.768Z,3.24
2023-04-10T05:32:51.592Z,3.12
2023-04-10T05:35:18.441Z,3.13
2023-04-10T05:37:45.266Z,3.20
2023-04-10T05:40:12.195Z,3.24
2023-04-10T05:42:38.989Z,3.27
2023-04-10T05:45:06.757Z,3.41
2023-04-10T05:47:33.640Z,3.41
2023-04-10T05:50:00.488Z,3.48
2023-04-10T05:52:27.253Z,3.59
2023-04-10T05:54:54.008Z,3.54
2023-04-10T05:57:20.704Z,3.61
2023-04-10T05:59:47.561Z,3.59
2023-04-10T06:02:14.346Z,3.61
2023-04-10T06:04:41.240Z,3.72
2023-04-10T06:07:08.272Z,4.07
2023-04-10T06:09:35.041Z,4.23
2023-04-10T06:12:01.815Z,4.77
2023-04-10T06:14:28.662Z,5.13
2023-04-10T06:16:55.528Z,5.39
2023-04-10T06:19:22.405Z,5.71
2023-04-10T06:21:49.083Z,5.61
2023-04-10T06:24:16.037Z,5.87
2023-04-10T06:26:42.792Z,5.95
2023-04-10T06:29:09.671Z,6.27
2023-04-10T06:31:36.531Z,6.59
2023-04-10T06:34:03.330Z,6.78
2023-04-10T06:36:30.200Z,6.20
2023-04-10T06:38:57.448Z,6.27
2023-04-10T06:41:24.213Z,6.21
2023-04-10T06:43:51.313Z,6.26
2023-04-10T06:46:18.246Z,6.78
2023-04-10T06:48:45.011Z,6.98
2023-04-10T06:51:11.858Z,7.10
2023-04-10T06:53:38.562Z,7.46
2023-04-10T06:56:05.978Z,7.38
2023-04-10T06:58:32.874Z,7.25
2023-04-10T07:01:04.549Z,7.28
2023-04-10T07:03:32.486Z,7.12
2023-04-10T07:06:01.940Z,6.99
2023-04-10T07:08:28.735Z,6.96
2023-04-10T07:10:57.868Z,7.18
2023-04-10T07:13:25.441Z,7.39
2023-04-10T07:15:52.289Z,7.34
2023-04-10T07:18:19.392Z,7.29
2023-04-10T07:20:46.865Z,7.60
2023-04-10T07:23:13.778Z,7.64
2023-04-10T07:25:42.401Z,8.01
2023-04-10T07:28:09.471Z,8.29
2023-04-10T07:30:36.925Z,8.29
2023-04-10T07:33:03.902Z,8.19
2023-04-10T07:35:31.119Z,8.12
2023-04-10T07:37:58.191Z,8.26
2023-04-10T07:40:24.917Z,8.21
2023-04-10T07:42:53.766Z,7.99
2023-04-10T07:45:20.993Z,8.15
2023-04-10T07:47:47.990Z,8.31
2023-04-10T07:50:15.417Z,8.70
2023-04-10T07:52:42.447Z,9.23
2023-04-10T07:55:09.568Z,9.80
2023-04-10T07:57:36.354Z,10.00
2023-04-10T08:00:03.602Z,10.06
2023-04-10T08:02:30.742Z,10.11
2023-04-10T08:04:57.777Z,10.14
2023-04-10T08:07:24.804Z,10.31
2023-04-10T08:09:51.570Z,10.09
2023-04-10T08:12:18.730Z,10.55
2023-04-10T08:14:45.662Z,10.95
2023-04-10T08:17:14.990Z,10.81
2023-04-10T08:19:43.446Z,10.58
2023-04-10T08:22:10.405Z,10.27
2023-04-10T08:24:37.626Z,10.54
2023-04-10T08:27:04.527Z,10.87
2023-04-10T08:29:31.564Z,10.53
2023-04-10T08:32:01.093Z,10.82
2023-04-10T08:34:28.143Z,10.89
2023-04-10T08:36:55.048Z,11.17
2023-04-10T08:39:21.804Z,11.42
2023-04-10T08:41:49.085Z,11.40
2023-04-10T08:44:16.233Z,11.48
2023-04-10T08:46:45.347Z,11.75
2023-04-10T08:49:22.380Z,11.92
2023-04-10T08:51:56.955Z,11.96
2023-04-10T08:54:29.794Z,12.41
2023-04-10T08:56:58.815Z,12.53
2023-04-10T08:59:25.863Z,12.82
2023-04-10T09:01:53.673Z,13.39
2023-04-10T09:04:21.166Z,13.61
2023-04-10T09:06:48.014Z,13.73
2023-04-10T09:09:14.803Z,13.97
2023-04-10T09:11:56.702Z,14.56
2023-04-10T09:14:44.000Z,14.68
2023-04-10T09:17:21.080Z,15.17
2023-04-10T09:19:53.471Z,15.90
2023-04-10T09:22:35.071Z,16.13
2023-04-10T09:25:04.379Z,16.63
2023-04-10T09:27:32.592Z,16.30
2023-04-10T09:29:59.846Z,16.39
2023-04-10T09:32:44.159Z,17.00
2023-04-10T09:35:15.986Z,16.80
2023-04-10T09:37:46.561Z,17.22
2023-04-10T09:40:21.540Z,17.45
2023-04-10T09:42:49.002Z,17.92
2023-04-10T09:45:20.256Z,17.88
2023-04-10T09:48:02.958Z,17.53
2023-04-10T09:50:39.551Z,18.04
2023-04-10T09:53:12.761Z,18.33
2023-04-10T09:55:40.802Z,18.37
2023-04-10T09:58:08.767Z,19.23
2023-04-10T10:00:49.345Z,18.69
2023-04-10T10:03:18.654Z,18.51
2023-04-10T10:05:51.158Z,18.66
2023-04-10T10:08:18.459Z,18.50
2023-04-10T10:10:50.429Z,19.50
2023-04-10T10:13:37.697Z,19.13
2023-04-10T10:16:11.869Z,19.31
2023-04-10T10:18:47.525Z,20.01
2023-04-10T10:21:15.918Z,19.03
2023-04-10T10:23:44.075Z,19.45
2023-04-10T10:26:11.405Z,19.40
2023-04-10T10:28:40.814Z,19.66
2023-04-10T10:31:08.124Z,19.50
2023-04-10T10:33:38.496Z,19.40
2023-04-10T10:36:05.690Z,19.80
2023-04-10T10:38:33.646Z,19.88
2023-04-10T10:41:16.760Z,20.26
2023-04-10T10:44:09.218Z,18.98
2023-04-10T10:46:44.311Z,19.31
2023-04-10T10:49:11.101Z,19.89
2023-04-10T10:51:49.322Z,20.16
2023-04-10T10:54:40.379Z,20.54
2023-04-10T10:57:47.054Z,20.42
2023-04-10T11:00:15.918Z,20.57
2023-04-10T11:02:43.143Z,21.07
2023-04-10T11:05:10.183Z,20.47
2023-04-10T11:07:59.122Z,20.90
2023-04-10T11:11:05.605Z,21.46
2023-04-10T11:13:37.662Z,21.20
2023-04-10T11:16:06.647Z,20.84
2023-04-10T11:18:45.714Z,22.10
2023-04-10T11:21:12.705Z,21.14
2023-04-10T11:23:59.610Z,20.18
2023-04-10T11:26:36.559Z,21.14
2023-04-10T11:29:06.067Z,20.70
2023-04-10T11:31:34.409Z,21.16
2023-04-10T11:34:03.824Z,19.86
2023-04-10T11:36:32.358Z,20.33
2023-04-10T11:39:13.427Z,20.49
2023-04-10T11:41:54.259Z,20.71
2023-04-10T11:44:35.585Z,21.14
2023-04-10T11:47:02.580Z,20.90
2023-04-10T11:49:34.810Z,20.65
2023-04-10T11:52:01.773Z,21.10
2023-04-10T11:54:29.753Z,21.44
2023-04-10T11:57:04.719Z,20.77
2023-04-10T11:59:33.528Z,20.55
2023-04-10T12:02:08.097Z,20.46
2023-04-10T12:04:35.719Z,20.70
2023-04-10T12:07:03.699Z,20.42
2023-04-10T12:09:30.567Z,20.75
2023-04-10T12:12:05.726Z,21.47
2023-04-10T12:14:37.018Z,21.09
2023-04-10T12:17:06.031Z,21.97
2023-04-10T12:19:34.068Z,21.63
2023-04-10T12:22:04.742Z,21.45
2023-04-10T12:24:51.337Z,21.07
2023-04-10T12:27:22.149Z,21.70
2023-04-10T12:29:52.019Z,21.55
2023-04-10T12:32:19.594Z,21.46
2023-04-10T12:34:58.135Z,21.39
2023-04-10T12:37:46.049Z,21.44
2023-04-10T12:40:14.097Z,22.05
2023-04-10T12:42:44.488Z,21.15
2023-04-10T12:45:13.777Z,21.55
2023-04-10T12:47:47.339Z,20.92
2023-04-10T12:50:18.093Z,21.89
2023-04-10T12:52:46.702Z,21.49
2023-04-10T12:55:19.788Z,21.66
2023-04-10T12:57:49.043Z,21.50
2023-04-10T13:00:21.030Z,21.74
2023-04-10T13:02:49.174Z,20.79
2023-04-10T13:05:16.399Z,21.67
2023-04-10T13:07:43.269Z,20.95
2023-04-10T13:10:10.411Z,20.62
2023-04-10T13:12:38.904Z,20.85
2023-04-10T13:15:07.746Z,21.99
2023-04-10T13:17:35.098Z,22.07
2023-04-10T13:20:02.150Z,21.46
2023-04-10T13:22:28.894Z,22.04
2023-04-10T13:24:55.668Z,21.52
2023-04-10T13:27:22.782Z,21.31
2023-04-10T13:29:49.526Z,20.58
2023-04-10T13:32:16.349Z,20.65
2023-04-10T13:34:43.198Z,20.78
2023-04-10T13:37:13.123Z,21.14
2023-04-10T13:39:39.971Z,21.02
2023-04-10T13:42:06.774Z,20.76
2023-04-10T13:44:33.742Z,21.18
2023-04-10T13:47:01.671Z,21.45
2023-04-10T13:49:31.664Z,21.60
2023-04-10T13:51:58.555Z,21.74
2023-04-10T13:54:26.615Z,21.48
2023-04-10T13:56:54.612Z,22.22
2023-04-10T13:59:21.510Z,21.85
2023-04-10T14:01:50.887Z,21.32
2023-04-10T14:04:18.323Z,21.10
2023-04-10T14:06:45.094Z,21.70
2023-04-10T14:09:11.928Z,21.93
2023-04-10T14:11:38.708Z,21.99
2023-04-10T14:14:05.742Z,21.27
2023-04-10T14:16:32.479Z,21.37
2023-04-10T14:18:59.249Z,21.33
2023-04-10T14:21:26.337Z,20.87
2023-04-10T14:23:53.123Z,20.57
2023-04-10T14:26:19.938Z,20.74
2023-04-10T14:28:46.664Z,20.79
2023-04-10T14:31:13.409Z,20.04
2023-04-10T14:33:40.203Z,20.17
2023-04-10T14:36:07.480Z,19.79
2023-04-10T14:38:34.297Z,19.60
2023-04-10T14:41:01.195Z,19.15
2023-04-10T14:43:28.444Z,19.08
2023-04-10T14:45:55.369Z,19.05
2023-04-10T14:48:23.075Z,19.20
2023-04-10T14:50:50.087Z,19.24
2023-04-10T14:53:16.994Z,18.86
2023-04-10T14:55:43.917Z,18.84
2023-04-10T14:58:11.319Z,18.79
2023-04-10T15:00:38.207Z,18.04
2023-04-10T15:03:06.037Z,18.30
2023-04-10T15:05:33.045Z,18.10
2023-04-10T15:08:00.006Z,18.04
2023-04-10T15:10:29.559Z,17.66
2023-04-10T15:12:56.380Z,17.74
2023-04-10T15:15:23.100Z,17.58
2023-04-10T15:17:49.871Z,17.66
2023-04-10T15:20:16.775Z,17.64
2023-04-10T15:22:44.984Z,17.44
2023-04-10T15:25:14.845Z,17.52
2023-04-10T15:27:41.954Z,17.66
2023-04-10T15:30:09.027Z,17.80
2023-04-10T15:32:38.230Z,17.69
2023-04-10T15:35:06.209Z,17.84
2023-04-10T15:37:36.049Z,18.02
2023-04-10T15:40:04.719Z,17.96
2023-04-10T15:42:31.818Z,17.94
2023-04-10T15:44:58.714Z,18.09
2023-04-10T15:47:26.546Z,17.66
2023-04-10T15:49:53.331Z,17.53
2023-04-10T15:52:20.252Z,17.25
2023-04-10T15:54:47.088Z,17.47
2023-04-10T15:57:13.829Z,17.32
2023-04-10T15:59:40.624Z,17.51
2023-04-10T16:02:07.547Z,17.34
2023-04-10T16:04:35.382Z,17.45
2023-04-10T16:07:02.504Z,17.45
2023-04-10T16:09:30.655Z,17.37
2023-04-10T16:11:57.793Z,16.92
2023-04-10T16:14:24.661Z,17.13
2023-04-10T16:16:51.453Z,16.93
2023-04-10T16:19:18.614Z,16.76
2023-04-10T16:21:48.414Z,16.82
2023-04-10T16:24:15.480Z,16.88
2023-04-10T16:26:42.412Z,16.86
2023-04-10T16:29:09.252Z,16.58
2023-04-10T16:31:35.991Z,16.42
2023-04-10T16:34:03.727Z,16.39
2023-04-10T16:36:31.385Z,16.10
2023-04-10T16:38:58.359Z,16.26
2023-04-10T16:41:25.427Z,16.16
2023-04-10T16:43:52.235Z,15.97
2023-04-10T16:46:19.136Z,16.01
2023-04-10T16:48:46.125Z,16.00
2023-04-10T16:51:17.886Z,15.83
2023-04-10T16:53:45.226Z,15.78
2023-04-10T16:56:12.202Z,15.78
2023-04-10T16:58:41.351Z,15.78
2023-04-10T17:01:18.516Z,15.58
2023-04-10T17:03:47.795Z,15.47
2023-04-10T17:06:15.902Z,15.45
2023-04-10T17:08:43.354Z,15.30
2023-04-10T17:11:12.400Z,15.15
2023-04-10T17:13:40.485Z,15.17
2023-04-10T17:16:08.098Z,15.18
2023-04-10T17:18:35.178Z,15.08
2023-04-10T17:21:02.001Z,15.02
2023-04-10T17:23:29.361Z,15.01
2023-04-10T17:25:56.231Z,14.87
2023-04-10T17:28:23.246Z,14.77
2023-04-10T17:30:50.056Z,14.80
2023-04-10T17:33:16.909Z,14.66
2023-04-10T17:35:43.750Z,14.70
2023-04-10T17:38:10.611Z,14.60
2023-04-10T17:40:40.910Z,14.50
2023-04-10T17:43:08.298Z,14.48
2023-04-10T17:45:39.134Z,14.41
2023-04-10T17:48:06.856Z,14.34
2023-04-10T17:50:34.026Z,14.35
2023-04-10T17:53:00.976Z,14.29
2023-04-10T17:55:28.074Z,14.37
2023-04-10T17:57:57.776Z,14.24
2023-04-10T18:00:24.762Z,14.21
2023-04-10T18:02:57.952Z,14.25
2023-04-10T18:05:25.504Z,14.15
2023-04-10T18:07:52.466Z,14.04
2023-04-10T18:10:19.413Z,14.01
2023-04-10T18:12:46.439Z,13.95
2023-04-10T18:15:14.518Z,13.95
2023-04-10T18:17:41.421Z,13.93
2023-04-10T18:20:08.652Z,13.91
2023-04-10T18:22:35.435Z,13.86
2023-04-10T18:25:02.384Z,13.85
2023-04-10T18:27:34.391Z,13.81
2023-04-10T18:30:01.696Z,13.91
2023-04-10T18:32:28.694Z,13.92
2023-04-10T18:34:56.099Z,13.81
2023-04-10T18:37:22.942Z,13.78
2023-04-10T18:39:49.917Z,13.76
2023-04-10T18:42:16.733Z,13.71
2023-04-10T18:44:43.563Z,13.68
2023-04-10T18:47:11.155Z,13.64
2023-04-10T18:49:38.097Z,13.65
2023-04-10T18:52:05.496Z,13.62
2023-04-10T18:54:34.149Z,13.65
2023-04-10T18:57:01.285Z,13.59
2023-04-10T18:59:28.347Z,13.50
2023-04-10T19:01:55.341Z,13.48
2023-04-10T19:04:22.739Z,13.49
2023-04-10T19:06:49.726Z,13.44
2023-04-10T19:09:16.851Z,13.46
2023-04-10T19:11:43.700Z,13.43
2023-04-10T19:14:11.046Z,13.32
2023-04-10T19:16:37.964Z,13.31
2023-04-10T19:19:04.755Z,13.31
2023-04-10T19:21:32.046Z,13.24
2023-04-10T19:23:58.848Z,13.19
2023-04-10T19:26:26.432Z,13.14
2023-04-10T19:28:53.881Z,13.12
2023-04-10T19:31:21.239Z,13.18
2023-04-10T19:33:48.086Z,13.15
2023-04-10T19:36:16.430Z,13.08
2023-04-10T19:38:48.567Z,12.97
2023-04-10T19:41:15.700Z,13.03
2023-04-10T19:43:42.809Z,12.90
2023-04-10T19:46:17.960Z,12.80
2023-04-10T19:48:45.472Z,12.79
2023-04-10T19:51:13.160Z,12.78
2023-04-10T19:53:40.714Z,12.69
2023-04-10T19:56:07.980Z,12.67
2023-04-10T19:58:40.992Z,12.64
2023-04-10T20:01:09.346Z,12.61
2023-04-10T20:03:37.615Z,12.57
2023-04-10T20:06:07.471Z,12.57
2023-04-10T20:08:35.702Z,12.52
2023-04-10T20:11:05.950Z,12.52
2023-04-10T20:13:34.397Z,12.47
2023-04-10T20:16:01.987Z,12.52
2023-04-10T20:18:28.829Z,12.49
2023-04-10T20:20:55.846Z,12.56
2023-04-10T20:23:23.237Z,12.45
2023-04-10T20:25:49.985Z,12.46
2023-04-10T20:28:17.496Z,12.45
2023-04-10T20:30:44.195Z,12.43
2023-04-10T20:33:11.157Z,12.41
2023-04-10T20:35:38.152Z,12.42
2023-04-10T20:38:05.100Z,12.30
2023-04-10T20:40:31.856Z,12.36
2023-04-10T20:42:58.677Z,12.38
2023-04-10T20:45:25.825Z,12.30
2023-04-10T20:47:52.616Z,12.32
2023-04-10T20:50:19.620Z,12.32
2023-04-10T20:52:46.345Z,12.23
2023-04-10T20:55:13.282Z,12.25
2023-04-10T20:57:40.342Z,12.23
2023-04-10T21:00:08.267Z,12.25
2023-04-10T21:02:35.523Z,12.20
2023-04-10T21:05:02.569Z,12.17
2023-04-10T21:07:29.773Z,12.15
2023-04-10T21:09:56.828Z,12.19
2023-04-10T21:12:23.882Z,12.16
2023-04-10T21:14:50.781Z,12.20
2023-04-10T21:17:19.134Z,12.12
2023-04-10T21:19:46.079Z,12.15
2023-04-10T21:22:12.894Z,12.21
2023-04-10T21:24:39.840Z,12.19
2023-04-10T21:27:07.510Z,12.13
2023-04-10T21:29:34.405Z,12.16
2023-04-10T21:32:01.252Z,12.14
2023-04-10T21:34:28.285Z,12.13
2023-04-10T21:36:54.993Z,12.11
2023-04-10T21:39:21.737Z,12.13
2023-04-10T21:41:48.634Z,12.10
2023-04-10T21:44:15.463Z,12.16
2023-04-10T21:46:42.170Z,12.14
2023-04-10T21:49:09.009Z,12.10
2023-04-10T21:51:36.058Z,12.11
2023-04-10T21:54:02.835Z,12.11
2023-04-10T21:56:29.630Z,12.17
2023-04-10T21:58:56.526Z,12.10
2023-04-10T22:01:23.308Z,12.12
2023-04-10T22:03:50.874Z,12.13
2023-04-10T22:06:17.681Z,12.08
2023-04-10T22:08:44.636Z,12.06
2023-04-10T22:11:11.405Z,12.04
2023-04-10T22:13:38.248Z,12.11
2023-04-10T22:16:06.229Z,12.07
2023-04-10T22:18:33.075Z,12.06
2023-04-10T22:20:59.949Z,12.04
2023-04-10T22:23:26.778Z,12.05
2023-04-10T22:25:53.630Z,12.02
2023-04-10T22:28:20.460Z,12.00
2023-04-10T22:30:47.215Z,12.04
2023-04-10T22:33:13.990Z,12.17
2023-04-10T22:35:40.756Z,12.25
2023-04-10T22:38:07.736Z,12.29
2023-04-10T22:40:34.853Z,12.14
2023-04-10T22:43:01.729Z,12.19
2023-04-10T22:45:28.526Z,12.37
2023-04-10T22:47:56.056Z,12.18
2023-04-10T22:50:22.850Z,12.07
2023-04-10T22:52:49.647Z,12.06
2023-04-10T22:55:16.481Z,12.07
2023-04-10T22:57:48.148Z,12.08
2023-04-10T23:00:15.770Z,12.07
2023-04-10T23:02:42.722Z,12.03
2023-04-10T23:05:09.570Z,12.04
2023-04-10T23:07:36.483Z,12.06
2023-04-10T23:10:03.423Z,12.01
2023-04-10T23:12:30.220Z,12.05
2023-04-10T23:14:57.099Z,12.07
2023-04-10T23:17:24.777Z,12.01
2023-04-10T23:19:51.471Z,12.06
2023-04-10T23:22:18.334Z,12.02
2023-04-10T23:24:45.797Z,11.99
2023-04-10T23:27:12.541Z,12.01
2023-04-10T23:29:39.258Z,12.02
2023-04-10T23:32:06.108Z,11.96
2023-04-10T23:34:32.764Z,11.99
2023-04-10T23:36:59.793Z,12.00
2023-04-10T23:39:26.597Z,11.92
2023-04-10T23:41:53.511Z,11.98
2023-04-10T23:44:20.376Z,11.90
2023-04-10T23:46:47.221Z,11.89
2023-04-10T23:49:14.052Z,11.86
2023-04-10T23:51:40.829Z,11.89
2023-04-10T23:54:07.680Z,11.92
2023-04-10T23:56:34.474Z,11.85
2023-04-10T23:59:01.260Z,11.85
